x

New London Ledge Ct - Ledge Light Weather Station (ldlc3) Weather Station

6:45 - Wed 1st Oct 2014 All times are EDT. -4 hours from GMT.

  • Wind
    13mph, 20mph gusts
  • Luft Temp 60°f
  • Sea Pressure 1016.4mb
  • New London Ledge Ct - Ledge Light Weather Station
  • New London Ledge Ct - Ledge Light Weather Station

More Historic Weather Station data

Upgrade to MSW Pro to gain access to the past 30 days of data for over 8000 Wavebouys and Weather Stations around the globe.

Join Pro

Comparision Forecast

View Surf forecast
   
Mi 10/01 6:45 13 20 mph 1016.4mb 60f
6:30 14 17 mph 1016.3mb 60f
6:15 15 21 mph 1016.3mb 60f
6:00 13 16 mph 1016.3mb 60f
5:45 11 14 mph 1016.3mb 60f
5:30 13 16 mph 1016.1mb 61f
5:15 15 17 mph 1016.1mb 61f
5:00 11 15 mph 1016.1mb 61f
4:45 14 17 mph 1015.7mb 61f
4:30 15 18 mph 1015.6mb 61f
4:15 17 22 mph 1015.4mb 61f
4:00 16 20 mph 1015.4mb 61f
3:45 15 20 mph 1015.5mb 60f
3:30 14 17 mph 1015.7mb 60f
3:15 17 21 mph 1015.5mb 61f
3:00 14 16 mph 1015.6mb 61f
2:45 17 21 mph 1015.6mb 61f
2:30 16 21 mph 1015.7mb 61f
2:15 15 20 mph 1015.7mb 61f
2:00 16 23 mph 1015.7mb 61f
1:45 14 22 mph 1015.7mb 61f
1:30 16 20 mph 1015.7mb 61f
1:15 16 18 mph 1015.7mb 61f
1:00 16 20 mph 1015.8mb 61f
12:45 17 21 mph 1015.9mb 61f
12:30 17 20 mph 1016mb 60f
12:15 17 20 mph 1016.1mb 60f
12:00 16 20 mph 1016.1mb 60f
11:45 16 21 mph 1016.1mb 60f
11:30 17 21 mph 1016.1mb 60f
11:15 18 21 mph 1016mb 60f
11:00 20 24 mph 1016mb 60f
10:45 21 28 mph 1015.9mb 60f
10:30 21 26 mph 1015.8mb 60f
10:15 21 24 mph 1015.8mb 60f
10:00 20 24 mph 1015.8mb 60f
9:45 21 24 mph 1015.7mb 59f
9:30 20 25 mph 1015.5mb 59f
9:15 17 22 mph 1015.6mb 59f
9:00 17 21 mph 1015.6mb 59f
8:45 15 20 mph 1015.7mb 59f
8:30 15 18 mph 1015.9mb 59f
8:15 14 16 mph 1015.9mb 59f
8:00 14 16 mph 1015.8mb 59f
7:45 11 15 mph 1015.8mb 59f
7:30 15 17 mph 1015.5mb 59f
7:15 14 15 mph 1015.4mb 59f
7:00 14 17 mph 1015.3mb 59f
6:45 15 17 mph 1015.1mb 59f
6:30 15 18 mph 1014.8mb 59f
6:15 14 16 mph 1014.7mb 59f
6:00 13 15 mph 1014.7mb 59f
5:45 13 15 mph 1014.6mb 59f
5:30 13 15 mph 1014.5mb 59f
5:15 11 14 mph 1014.7mb 59f
5:00 13 17 mph 1014.4mb 58f
4:45 10 15 mph 1014.4mb 58f
4:30 11 16 mph 1014.6mb 58f
4:15 11 14 mph 1014.6mb 58f
4:00 11 15 mph 1014.6mb 58f
3:45 13 16 mph 1014.4mb 58f
3:30 15 21 mph 1014.2mb 58f
3:15 14 18 mph 1014.1mb 58f
3:00 18 23 mph 1014mb 58f
2:45 17 20 mph 1014.1mb 58f
2:30 14 17 mph 1014.4mb 58f
2:15 16 20 mph 1014.4mb 58f
2:00 14 16 mph 1014.6mb 58f
1:45 11 15 mph 1014.9mb 58f
1:30 9 13 mph 1015mb 58f
1:15 9 11 mph 1014.9mb 58f
1:00 13 17 mph 1014.8mb 58f
Di 09/30 7:45 9 14 mph 1014.2mb 60f
7:15 11 15 mph 1014.2mb 60f
7:00 9 14 mph 1014.2mb 60f
6:45 8 15 mph 1014.1mb 61f
6:30 9 14 mph 1014mb 61f
6:15 9 14 mph 1013.9mb 61f
6:00 8 13 mph 1013.9mb 61f
5:45 13 16 mph 1013.8mb 61f
5:30 11 14 mph 1013.8mb 61f
5:15 14 16 mph 1013.8mb 61f
5:00 15 17 mph 1013.9mb 61f
4:45 11 15 mph 1013.9mb 62f
4:30 13 16 mph 1013.9mb 62f
4:15 11 15 mph 1014mb 62f
4:00 8 11 mph 1013.9mb 62f
3:45 7 10 mph 1014.2mb 61f
3:30 11 14 mph 1013.8mb 61f
3:15 13 16 mph 1013.7mb 62f
3:00 10 14 mph 1014.1mb 61f
2:45 14 15 mph 1014.2mb 61f
2:30 10 13 mph 1014.3mb 61f
2:15 11 14 mph 1014.4mb 61f
2:00 11 14 mph 1014.2mb 61f
1:45 9 13 mph 1014.3mb 61f
1:30 9 14 mph 1014.5mb 61f
1:15 9 11 mph 1014.6mb 61f
1:00 11 13 mph 1014.7mb 60f
12:45 11 14 mph 1014.8mb 60f
12:30 10 13 mph 1014.8mb 60f
12:15 9 11 mph 1014.9mb 60f
12:00 9 11 mph 1014.9mb 60f
11:45 10 14 mph 1014.7mb 60f
11:30 9 14 mph 1014.6mb 60f
11:15 6 8 mph 1014.9mb 60f
11:00 7 10 mph 1015.1mb 60f
10:45 7 11 mph 1015.1mb 60f
10:30 9 14 mph 1015.1mb 59f
10:15 9 11 mph 1015.4mb 59f
10:00 8 11 mph 1015.5mb 59f
9:45 8 11 mph 1015.4mb 59f
9:30 7 11 mph 1015.6mb 59f
9:15 9 13 mph 1015.5mb 59f
9:00 8 13 mph 1015.3mb 59f
8:45 8 14 mph 1015.3mb 59f
8:30 8 10 mph 1015.4mb 59f
8:15 7 11 mph 1015.3mb 59f
8:00 7 10 mph 1015.4mb 59f
7:45 9 13 mph 1015.2mb 59f
7:30 13 15 mph 1015mb 60f
7:15 13 16 mph 1014.7mb 60f
7:00 9 11 mph 1014.7mb 60f
6:45 9 14 mph 1014.5mb 60f
6:30 8 11 mph 1014.4mb 60f
6:15 8 10 mph 1014.4mb 61f
6:00 9 13 mph 1014.3mb 61f
5:45 11 15 mph 1014.3mb 61f
5:30 8 11 mph 1014.3mb 61f
5:15 7 13 mph 1014.2mb 61f
5:00 7 10 mph 1014.4mb 61f
4:45 8 10 mph 1014.4mb 61f
4:30 8 10 mph 1014.2mb 61f
4:15 10 13 mph 1013.7mb 62f
4:00 9 11 mph 1013.6mb 62f
3:45 7 10 mph 1013.4mb 62f
3:30 8 11 mph 1013.6mb 62f
3:15 9 14 mph 1013.5mb 62f
3:00 8 13 mph 1013.5mb 62f
2:45 8 14 mph 1013.6mb 62f
2:30 13 16 mph 1013.6mb 62f
2:15 8 11 mph 1013.8mb 63f
2:00 13 16 mph 1014mb 63f
1:45 14 17 mph 1014.2mb 63f
1:30 9 14 mph 1014.2mb 63f
1:15 9 11 mph 1014mb 64f
1:00 8 10 mph 1014mb 64f
Mo 09/29 7:45 8 9 mph 1013.2mb 67f
7:30 6 7 mph 1013.2mb 67f
7:15 5 6 mph 1013.1mb 67f
7:00 8 9 mph 1012.9mb 67f
6:45 8 9 mph 1013.1mb 68f
6:30 8
mph
1012.9mb 68f
6:15 9
mph
1012.9mb 68f
6:00 7 8 mph 1012.9mb 68f
5:45 8 9 mph 1013.1mb 68f
5:30 6 7 mph 1013.1mb 68f
5:15 6
mph
1012.9mb 68f
5:00 3
mph
1013.1mb 68f
4:45 3
mph
1013.3mb 69f
4:30 3 5 mph 1013.4mb 69f
4:15 3
mph
1013.4mb 69f
4:00 5 6 mph 1013.4mb 68f
3:45 6 7 mph 1013.1mb 68f
3:30 5 6 mph 1013mb 68f
3:15 2
mph
1013.1mb 69f
3:00 5 6 mph 1013.1mb 68f
2:45 3 5 mph 1013.1mb 68f
2:30 2 3 mph 1013.1mb 69f
2:15 3
mph
1013.1mb 69f
2:00 6
mph
1013.5mb 69f
1:45 6 7 mph 1013.5mb 68f
1:30 5 6 mph 1013.5mb 69f
1:15 5
mph
1013.6mb 68f
1:00 6
mph
1013.8mb 69f
12:45 6
mph
1014.1mb 69f
12:30 5 6 mph 1014.2mb 69f
12:15 7
mph
1014.4mb 69f
12:00 6 7 mph 1014.4mb 70f
11:45 9 10 mph 1014.4mb 69f
11:30 9 11 mph 1014.4mb 69f
11:15 6
mph
1014.2mb 70f
11:00 6 7 mph 1014.3mb 71f
10:45 6 7 mph 1014.4mb 69f
10:30 6
mph
1014.4mb 68f
10:15 5 6 mph 1014.5mb 68f
10:00 3 5 mph 1014.5mb 68f
9:45  -  2 mph 1014.7mb 67f
9:30 1 2 mph 1014.6mb 68f
9:15 1 2 mph 1014.8mb 66f
9:00 2
mph
1014.8mb 67f
8:45 2
mph
1014.8mb 66f
8:30  -  2 mph 1014.7mb 66f
8:15 1 2 mph 1014.7mb 69f
8:00 2
mph
1014.7mb 66f
7:45 2
mph
1014.6mb 64f
7:30 1 2 mph 1014.7mb 65f
7:15 2
mph
1014.7mb 65f
7:00 2
mph
1014.6mb 65f
6:45 2
mph
1014.5mb 65f
6:30 3
mph
1014.3mb 65f
6:15 2 3 mph 1014.3mb 65f
6:00 2
mph
1014.3mb 65f
5:45 2 5 mph 1014.4mb 66f
5:30 5 6 mph 1014.5mb 66f
5:15 5 7 mph 1014.5mb 66f
5:00 3 5 mph 1014.6mb 66f
4:45 3 5 mph 1014.6mb 66f
4:30 8 9 mph 1014.7mb 67f
4:15 8 9 mph 1014.7mb 67f
4:00 5 6 mph 1014.7mb 67f
3:45 8 9 mph 1014.8mb 67f
3:30 8 9 mph 1014.9mb 67f
3:15 8 9 mph 1014.9mb 67f
3:00 8 9 mph 1014.8mb 67f
2:45 7 8 mph 1015mb 67f
2:30 9 10 mph 1015.1mb 68f
2:15 10 11 mph 1015.3mb 68f
2:00 10 11 mph 1015.4mb 68f
1:45 8 9 mph 1015.6mb 68f
1:30 9 10 mph 1015.6mb 68f
1:15 9 11 mph 1015.5mb 68f
1:00 9 11 mph 1015.5mb 68f
So 09/28 7:45 7 8 mph 1016.8mb 69f
7:30 6 7 mph 1016.8mb 69f
7:15 5 6 mph 1016.8mb 70f
7:00 6 7 mph 1016.8mb 70f
6:45 8 9 mph 1016.8mb 70f
6:30 11 13 mph 1016.6mb 70f
6:15 11 13 mph 1016.5mb 71f
6:00 7 9 mph 1016.7mb 71f
5:45 5 6 mph 1016.8mb 71f
5:30 6 7 mph 1016.9mb 71f
5:15 6
mph
1016.8mb 71f
5:00 7
mph
1016.9mb 72f
4:45 7 8 mph 1016.9mb 71f
4:30 6 7 mph 1016.9mb 73f
4:15 7 8 mph 1017.1mb 72f
4:00 8 10 mph 1017.2mb 73f
3:45 7
mph
1017.3mb 73f
3:30 7
mph
1017.3mb 72f
3:15 6 7 mph 1017.5mb 72f
3:00 7
mph
1017.6mb 73f
2:45 7 8 mph 1017.8mb 73f
2:30 7
mph
1018.1mb 72f
2:15 8
mph
1018.1mb 72f
2:00 8 9 mph 1018.2mb 71f
1:45 6 7 mph 1018.4mb 72f
1:30 6 7 mph 1018.6mb 72f
1:15 8 9 mph 1018.9mb 71f
1:00 8 9 mph 1019.1mb 71f
12:45 9
mph
1019.3mb 71f
12:30 8 9 mph 1019.5mb 71f
12:15 7 9 mph 1019.7mb 71f
12:00 8 9 mph 1019.7mb 71f
11:45 7 8 mph 1019.8mb 71f
11:30 7 8 mph 1020mb 70f
11:15 7 8 mph 1020.3mb 70f
11:00 7 8 mph 1020.3mb 70f
10:45 7
mph
1020.4mb 69f
10:30 6 7 mph 1020.5mb 69f
10:15 3 5 mph 1020.6mb 69f
10:00 2 3 mph 1020.7mb 70f
9:45 1 2 mph 1020.8mb 71f
9:30  -  2 mph 1021mb 71f
9:15 3 5 mph 1021mb 67f
9:00 6 7 mph 1021mb 66f
8:45 6 7 mph 1021.1mb 66f
8:30 6 7 mph 1021.2mb 66f
8:15 7
mph
1021.3mb 64f
8:00 7 8 mph 1021.3mb 64f
7:45 7 8 mph 1021.3mb 63f
7:30 7 8 mph 1021.3mb 62f
7:15 6 7 mph 1021.3mb 62f
7:00 7
mph
1021.3mb 61f
6:45 7
mph
1021.1mb 60f
6:30 5 6 mph 1021mb 60f
6:15 5
mph
1021mb 60f
6:00 5 6 mph 1021mb 60f
5:45 6
mph
1020.9mb 60f
5:30 5
mph
1021mb 61f
5:15 5 6 mph 1020.9mb 61f
5:00 7 8 mph 1020.8mb 61f
4:45 6 7 mph 1020.8mb 61f
4:30 6 7 mph 1020.9mb 61f
4:15 6 7 mph 1020.8mb 61f
4:00 5
mph
1020.8mb 61f
3:45 5 6 mph 1020.7mb 61f
3:30 7 8 mph 1020.6mb 61f
3:15 9
mph
1020.5mb 61f
3:00 8 9 mph 1020.5mb 62f
2:45 8 9 mph 1020.7mb 62f
2:30 8
mph
1020.8mb 62f
2:15 7
mph
1020.9mb 62f
2:00 6 7 mph 1020.9mb 62f
1:45 6 7 mph 1021mb 63f
1:30 6
mph
1020.9mb 63f
1:15 5
mph
1020.9mb 63f
1:00 3 5 mph 1020.9mb 64f